Time;durP1;ratioP1;P1;durP2;ratioP2;P2;SDS_P1;SDS_P2;PMS_P1;PMS_P2;Temp;Humidity;BMP_temperature;BMP_pressure;BME280_temperature;BME280_humidity;BME280_pressure;Samples;Min_cycle;Max_cycle;Signal;HPM_P1;HPM_P2
2023/01/07 00:01:14;;;;;;;3.30;2.00;;;10.40;99.90;;;;;;6275526;22;20011;-79
2023/01/07 00:03:40;;;;;;;3.08;1.77;;;10.30;99.90;;;;;;6303954;22;20013;-78
2023/01/07 00:06:07;;;;;;;3.92;2.05;;;10.30;99.90;;;;;;6302254;22;20007;-78
2023/01/07 00:08:35;;;;;;;2.47;1.25;;;10.30;99.90;;;;;;6250809;22;20007;-78
2023/01/07 00:11:02;;;;;;;2.15;1.23;;;10.30;99.90;;;;;;6275849;22;20008;-78
2023/01/07 00:13:28;;;;;;;3.05;1.85;;;10.30;99.90;;;;;;6275178;22;20031;-78
2023/01/07 00:16:02;;;;;;;3.28;1.95;;;10.30;99.90;;;;;;6303034;22;20011;-78
2023/01/07 00:18:28;;;;;;;3.10;1.48;;;10.30;99.90;;;;;;6276311;22;20011;-78
2023/01/07 00:20:58;;;;;;;2.60;1.42;;;10.30;99.90;;;;;;6276101;22;20090;-79
2023/01/07 00:23:24;;;;;;;;;;;10.30;99.90;;;;;;6276721;22;20463;-78
2023/01/07 00:25:51;;;;;;;3.65;2.45;;;10.30;99.90;;;;;;6303604;22;19902;-81
2023/01/07 00:28:17;;;;;;;2.42;1.88;;;10.20;99.90;;;;;;6275773;22;20339;-81
2023/01/07 00:30:43;;;;;;;3.20;2.38;;;10.30;99.90;;;;;;6276370;22;20003;-80
2023/01/07 00:33:12;;;;;;;6.18;4.18;;;10.20;99.90;;;;;;6275447;22;20080;-78
2023/01/07 00:35:39;;;;;;;5.65;4.28;;;10.20;99.90;;;;;;6250835;22;20015;-77
2023/01/07 00:38:05;;;;;;;6.90;5.10;;;10.20;99.90;;;;;;6302187;22;19999;-80
2023/01/07 00:40:31;;;;;;;5.82;4.65;;;10.20;99.90;;;;;;6276053;22;20011;-79
2023/01/07 00:43:02;;;;;;;4.47;3.00;;;10.20;99.90;;;;;;6275281;22;20350;-78
2023/01/07 00:45:33;;;;;;;3.25;2.65;;;10.20;99.90;;;;;;6303840;22;20400;-78
2023/01/07 00:48:00;;;;;;;4.20;2.75;;;10.20;99.90;;;;;;6276095;22;20309;-78
2023/01/07 00:50:28;;;;;;;4.05;2.85;;;10.10;99.90;;;;;;6303427;22;20003;-77
2023/01/07 00:52:54;;;;;;;3.67;2.15;;;10.10;99.90;;;;;;6275769;22;20018;-78
2023/01/07 00:55:21;;;;;;;5.10;3.72;;;10.10;99.90;;;;;;6275810;22;20015;-78
2023/01/07 00:57:47;;;;;;;3.50;2.75;;;10.00;99.90;;;;;;6275134;22;20339;-77
2023/01/07 01:00:15;;;;;;;4.10;2.78;;;10.00;99.90;;;;;;6250340;22;20011;-78
2023/01/07 01:02:41;;;;;;;4.63;2.42;;;9.90;99.90;;;;;;6276040;22;20003;-78
2023/01/07 01:05:07;;;;;;;3.38;2.40;;;10.00;99.90;;;;;;6302945;22;20007;-78
2023/01/07 01:07:34;;;;;;;3.15;2.42;;;9.90;99.90;;;;;;6249648;22;20007;-79
2023/01/07 01:10:00;;;;;;;2.90;2.30;;;9.90;99.90;;;;;;6250027;22;20435;-77
2023/01/07 01:12:26;;;;;;;2.28;1.60;;;9.90;99.90;;;;;;6249599;22;20098;-78
2023/01/07 01:14:53;;;;;;;5.10;3.30;;;9.90;99.90;;;;;;6274656;22;20011;-78
2023/01/07 01:17:20;;;;;;;3.63;2.47;;;10.00;99.90;;;;;;6275837;22;20014;-78
2023/01/07 01:19:46;;;;;;;3.03;1.92;;;10.00;99.90;;;;;;6275426;22;20060;-78
2023/01/07 01:22:11;;;;;;;3.42;1.85;;;10.00;99.90;;;;;;6249646;22;20007;-78
2023/01/07 01:24:37;;;;;;;3.95;2.40;;;10.00;99.90;;;;;;6250044;22;20017;-77
2023/01/07 01:27:03;;;;;;;3.42;2.35;;;10.00;99.90;;;;;;6300602;22;20319;-78
2023/01/07 01:29:29;;;;;;;2.30;1.65;;;10.00;99.90;;;;;;6301461;22;20282;-77
2023/01/07 01:31:55;;;;;;;2.80;2.17;;;10.00;99.90;;;;;;6275426;22;20003;-77
2023/01/07 01:34:21;;;;;;;2.40;1.98;;;10.00;99.90;;;;;;6249997;22;20015;-77
2023/01/07 01:36:46;;;;;;;4.00;2.53;;;10.10;99.90;;;;;;6249349;22;20054;-78
2023/01/07 01:39:12;;;;;;;2.70;1.90;;;10.10;99.90;;;;;;6274922;22;20053;-78
2023/01/07 01:41:38;;;;;;;4.30;2.63;;;10.10;99.90;;;;;;6299115;22;20006;-77
2023/01/07 01:44:32;;;;;;;3.78;3.33;;;10.10;99.90;;;;;;6274758;22;20023;-77
2023/01/07 01:46:58;;;;;;;4.05;2.95;;;10.20;99.90;;;;;;6249507;22;20007;-78
2023/01/07 01:49:31;;;;;;;3.28;2.88;;;10.10;99.90;;;;;;6249627;22;20000;-78
2023/01/07 01:52:14;;;;;;;4.25;3.72;;;10.10;99.90;;;;;;6275356;22;20085;-77
2023/01/07 01:54:43;;;;;;;3.78;3.08;;;10.10;99.90;;;;;;6274900;22;20025;-77
2023/01/07 01:57:09;;;;;;;6.15;3.85;;;10.00;99.90;;;;;;6248744;22;20059;-78
2023/01/07 01:59:39;;;;;;;4.57;3.22;;;10.00;99.90;;;;;;6275113;22;20086;-78
2023/01/07 02:02:08;;;;;;;3.35;2.10;;;9.90;99.90;;;;;;6274841;22;20035;-78
2023/01/07 02:04:35;;;;;;;3.38;1.70;;;9.90;99.90;;;;;;6249329;22;20021;-78
2023/01/07 02:07:27;;;;;;;3.15;1.33;;;9.90;99.90;;;;;;6249216;22;20003;-78
2023/01/07 02:10:12;;;;;;;2.78;1.08;;;9.80;99.90;;;;;;6270488;22;20056;-80
2023/01/07 02:12:51;;;;;;;2.53;1.40;;;9.80;99.90;;;;;;6250074;22;20007;-81
2023/01/07 02:15:21;;;;;;;2.28;1.20;;;9.90;99.90;;;;;;6274675;22;20054;-78
2023/01/07 02:18:08;;;;;;;2.90;1.25;;;9.80;99.90;;;;;;6275054;22;20010;-78
2023/01/07 02:21:01;;;;;;;4.00;2.50;;;9.90;99.90;;;;;;6248925;22;20012;-78
2023/01/07 02:23:42;;;;;;;2.72;1.77;;;10.00;99.90;;;;;;6249287;22;20094;-78
2023/01/07 02:26:30;;;;;;;4.35;2.28;;;9.90;99.90;;;;;;6274620;22;20017;-78
2023/01/07 02:29:11;;;;;;;3.92;1.60;;;9.90;99.90;;;;;;6275301;22;20008;-78
2023/01/07 02:32:01;;;;;;;2.92;1.95;;;9.90;99.90;;;;;;6274689;22;20003;-79
2023/01/07 02:34:41;;;;;;;3.60;2.90;;;9.90;99.90;;;;;;6249609;22;20060;-79
2023/01/07 02:37:47;;;;;;;2.70;1.83;;;9.90;99.90;;;;;;6300777;22;20733;-78
2023/01/07 02:40:29;;;;;;;3.22;2.22;;;9.90;99.90;;;;;;6176829;23;20005;-78
2023/01/07 02:43:21;;;;;;;4.35;3.13;;;9.90;99.90;;;;;;6177487;23;20330;-78
2023/01/07 02:46:04;;;;;;;4.05;3.33;;;10.00;99.90;;;;;;6152756;23;20008;-78
2023/01/07 02:48:32;;;;;;;4.47;3.10;;;10.00;99.90;;;;;;6177834;23;20020;-78
2023/01/07 02:50:58;;;;;;;3.65;2.53;;;10.00;99.90;;;;;;6152287;23;20009;-78
2023/01/07 02:53:24;;;;;;;2.55;1.27;;;10.00;99.90;;;;;;6152142;23;20051;-78
2023/01/07 02:56:11;;;;;;;2.85;1.35;;;9.90;99.90;;;;;;6177276;23;20024;-78
2023/01/07 02:58:57;;;;;;;2.65;1.08;;;9.90;99.90;;;;;;6153066;23;20009;-78
2023/01/07 03:01:38;;;;;;;1.85;0.82;;;10.00;99.90;;;;;;6177561;23;20012;-78
2023/01/07 03:04:25;;;;;;;1.83;0.90;;;10.00;99.90;;;;;;6152942;23;20045;-78
2023/01/07 03:07:07;;;;;;;2.30;1.00;;;10.00;99.90;;;;;;6152582;23;20136;-77
2023/01/07 03:09:46;;;;;;;3.10;0.85;;;10.00;99.90;;;;;;6127977;23;20087;-77
2023/01/07 03:12:25;;;;;;;2.50;0.90;;;10.00;99.90;;;;;;6127578;23;20454;-78
2023/01/07 03:15:02;;;;;;;3.78;1.00;;;10.10;99.90;;;;;;6145222;22;20046;-77
2023/01/07 03:17:35;;;;;;;2.53;1.13;;;10.00;99.90;;;;;;6248747;22;20014;-78
2023/01/07 03:20:03;;;;;;;1.75;0.63;;;10.00;99.90;;;;;;6249146;22;20007;-78
2023/01/07 03:22:32;;;;;;;4.10;1.00;;;10.00;99.90;;;;;;6299501;22;20011;-78
2023/01/07 03:25:00;;;;;;;2.00;0.85;;;10.00;99.90;;;;;;6249075;22;20436;-78
2023/01/07 03:27:31;;;;;;;2.75;0.93;;;10.10;99.90;;;;;;6249352;22;20035;-77
2023/01/07 03:30:01;;;;;;;2.22;1.00;;;10.10;99.90;;;;;;6274629;22;20018;-78
2023/01/07 03:32:51;;;;;;;1.92;0.55;;;10.10;99.90;;;;;;6274795;22;20011;-78
2023/01/07 03:35:19;;;;;;;2.25;0.60;;;10.00;99.90;;;;;;6251374;22;20019;-78
2023/01/07 03:37:47;;;;;;;1.67;0.68;;;10.00;99.90;;;;;;6250696;22;20503;-78
2023/01/07 03:40:14;;;;;;;2.40;0.95;;;10.00;99.90;;;;;;6276328;22;20503;-78
2023/01/07 03:42:40;;;;;;;2.40;1.13;;;9.90;99.90;;;;;;6276227;22;20313;-77
2023/01/07 03:45:21;;;;;;;1.48;0.75;;;9.90;99.90;;;;;;6254051;22;20004;-77
2023/01/07 03:47:54;;;;;;;1.77;0.60;;;9.80;99.90;;;;;;6276066;22;20049;-78
2023/01/07 03:50:22;;;;;;;1.67;0.70;;;9.70;99.90;;;;;;6276594;22;20003;-79
2023/01/07 03:52:49;;;;;;;1.48;0.57;;;9.60;99.90;;;;;;6275888;22;20116;-78
2023/01/07 03:55:17;;;;;;;2.05;0.90;;;9.60;99.90;;;;;;6276436;22;20436;-78
2023/01/07 03:57:43;;;;;;;2.63;0.70;;;9.70;99.90;;;;;;6276557;22;19999;-78
2023/01/07 04:00:11;;;;;;;2.35;0.68;;;9.60;99.90;;;;;;6301924;22;20007;-80
2023/01/07 04:02:40;;;;;;;1.42;0.60;;;9.60;99.90;;;;;;6277614;22;20333;-81
2023/01/07 04:05:09;;;;;;;2.58;0.70;;;9.60;99.90;;;;;;6250653;22;20050;-77
2023/01/07 04:07:36;;;;;;;1.33;0.50;;;9.50;99.90;;;;;;6250454;22;20114;-79
2023/01/07 04:10:03;;;;;;;1.13;0.50;;;9.60;99.90;;;;;;6303328;22;20003;-78
2023/01/07 04:12:29;;;;;;;1.48;0.70;;;9.50;99.90;;;;;;6250946;22;20007;-77
2023/01/07 04:14:54;;;;;;;2.28;0.65;;;9.60;99.90;;;;;;6275527;22;20502;-78
2023/01/07 04:17:20;;;;;;;2.50;0.70;;;9.60;99.90;;;;;;6250453;22;20332;-78
2023/01/07 04:19:46;;;;;;;1.98;0.60;;;9.60;99.90;;;;;;6276093;22;20030;-78
2023/01/07 04:22:12;;;;;;;1.60;0.60;;;9.50;99.90;;;;;;6300999;22;20004;-77
2023/01/07 04:24:37;;;;;;;1.42;0.60;;;9.50;99.90;;;;;;6276295;22;20152;-78
2023/01/07 04:27:03;;;;;;;2.85;0.70;;;9.40;99.90;;;;;;6301306;22;20022;-78
2023/01/07 04:29:29;;;;;;;1.73;0.70;;;9.40;99.90;;;;;;6276226;22;20428;-78
2023/01/07 04:31:55;;;;;;;1.73;0.50;;;9.40;99.90;;;;;;6275601;22;20003;-77
2023/01/07 04:34:21;;;;;;;1.80;0.60;;;9.40;99.90;;;;;;6275400;22;20038;-77
2023/01/07 04:36:47;;;;;;;1.40;0.40;;;9.40;99.90;;;;;;6275814;22;20008;-77
2023/01/07 04:39:13;;;;;;;1.35;0.52;;;9.40;99.90;;;;;;6276246;22;20506;-77
2023/01/07 04:41:39;;;;;;;1.00;0.45;;;9.30;99.90;;;;;;6275790;22;20023;-78
2023/01/07 04:44:05;;;;;;;2.05;0.60;;;9.40;99.90;;;;;;6275762;22;20007;-77
2023/01/07 04:46:32;;;;;;;0.98;0.40;;;9.40;99.90;;;;;;6275976;22;20012;-77
2023/01/07 04:48:58;;;;;;;3.13;0.77;;;9.40;99.90;;;;;;6274708;22;20029;-77
2023/01/07 04:51:24;;;;;;;3.00;0.65;;;9.40;99.90;;;;;;6303465;22;20007;-77
2023/01/07 04:53:50;;;;;;;2.00;0.70;;;9.40;99.90;;;;;;6300311;22;20336;-78
2023/01/07 04:56:16;;;;;;;1.92;0.60;;;9.40;99.90;;;;;;6275741;22;20370;-78
2023/01/07 04:58:42;;;;;;;1.20;0.47;;;9.30;99.90;;;;;;6250544;22;20007;-78
2023/01/07 05:01:09;;;;;;;1.38;0.60;;;9.30;99.90;;;;;;6275427;22;20340;-77
2023/01/07 05:03:36;;;;;;;2.92;0.60;;;9.40;99.90;;;;;;6275453;22;20003;-78
2023/01/07 05:06:03;;;;;;;1.48;0.60;;;9.40;99.90;;;;;;6275645;22;20454;-77
2023/01/07 05:08:29;;;;;;;1.65;0.70;;;9.40;99.90;;;;;;6275332;22;20038;-77
2023/01/07 05:10:55;;;;;;;1.25;0.50;;;9.40;99.90;;;;;;6275045;22;20033;-77
2023/01/07 05:13:23;;;;;;;1.13;0.40;;;9.30;99.90;;;;;;6301110;22;20398;-77
2023/01/07 05:15:49;;;;;;;1.40;0.50;;;9.40;99.90;;;;;;6275272;22;20094;-77
2023/01/07 05:18:15;;;;;;;1.30;0.60;;;9.30;99.90;;;;;;6300580;22;20470;-76
2023/01/07 05:20:42;;;;;;;1.90;0.65;;;9.30;99.90;;;;;;6275632;22;20007;-77
2023/01/07 05:23:08;;;;;;;1.65;0.55;;;9.30;99.90;;;;;;6275497;22;20336;-77
2023/01/07 05:25:35;;;;;;;1.13;0.60;;;9.30;99.90;;;;;;6301515;22;20015;-77
2023/01/07 05:28:01;;;;;;;10.88;1.15;;;9.30;99.90;;;;;;6249690;22;20006;-76
2023/01/07 05:30:28;;;;;;;2.08;1.00;;;9.40;99.90;;;;;;6275518;22;20463;-80
2023/01/07 05:32:55;;;;;;;2.55;0.70;;;9.40;99.90;;;;;;6275127;22;20014;-77
2023/01/07 05:35:21;;;;;;;3.05;0.73;;;9.50;99.90;;;;;;6275531;22;20039;-78
2023/01/07 05:37:47;;;;;;;1.60;0.73;;;9.50;99.90;;;;;;6249602;22;20038;-77
2023/01/07 05:40:13;;;;;;;1.33;0.52;;;9.40;99.90;;;;;;6274995;22;20015;-78
2023/01/07 05:42:39;;;;;;;1.70;0.55;;;9.40;99.90;;;;;;6275576;22;20447;-77
2023/01/07 05:45:05;;;;;;;3.72;0.70;;;9.30;99.90;;;;;;6300680;22;20490;-77
2023/01/07 05:47:31;;;;;;;1.75;0.50;;;9.30;99.90;;;;;;6274762;22;20003;-78
2023/01/07 05:49:56;;;;;;;2.20;0.73;;;9.40;99.90;;;;;;6300782;22;20101;-77
2023/01/07 05:52:22;;;;;;;1.50;0.80;;;9.30;99.90;;;;;;6301270;22;20011;-77
2023/01/07 05:54:48;;;;;;;1.73;0.60;;;9.30;99.90;;;;;;6274546;22;20019;-77
2023/01/07 05:57:13;;;;;;;1.40;0.55;;;9.30;99.90;;;;;;6302615;22;20049;-77
2023/01/07 05:59:39;;;;;;;2.70;0.60;;;9.30;99.90;;;;;;6302993;22;20034;-77
2023/01/07 06:02:04;;;;;;;1.08;0.50;;;9.30;99.90;;;;;;6248578;22;20491;-79
2023/01/07 06:04:30;;;;;;;1.52;0.68;;;9.30;99.90;;;;;;6274843;22;20014;-77
2023/01/07 06:06:56;;;;;;;1.58;0.50;;;9.40;99.90;;;;;;6302406;22;20070;-77
2023/01/07 06:09:22;;;;;;;2.17;0.60;;;9.40;99.90;;;;;;6274657;22;20014;-77
2023/01/07 06:11:47;;;;;;;2.67;0.77;;;9.40;99.90;;;;;;6300973;22;19999;-77
2023/01/07 06:14:13;;;;;;;2.13;0.80;;;9.50;99.90;;;;;;6274608;22;20027;-77
2023/01/07 06:16:39;;;;;;;1.42;0.60;;;9.50;99.90;;;;;;6274683;22;20435;-76
2023/01/07 06:19:05;;;;;;;2.50;0.82;;;9.50;99.90;;;;;;6275001;22;20014;-77
2023/01/07 06:21:31;;;;;;;2.00;0.60;;;9.60;99.90;;;;;;6274923;22;20336;-77
2023/01/07 06:23:56;;;;;;;1.65;0.60;;;9.60;99.90;;;;;;6300747;22;20064;-76
2023/01/07 06:26:22;;;;;;;1.48;0.50;;;9.50;99.90;;;;;;6275130;22;20011;-78
2023/01/07 06:28:49;;;;;;;1.55;0.55;;;9.60;99.90;;;;;;6274584;22;20007;-76
2023/01/07 06:31:15;;;;;;;1.40;0.55;;;9.60;99.90;;;;;;6302059;22;20007;-77
2023/01/07 06:33:41;;;;;;;2.20;0.63;;;9.60;99.90;;;;;;6300454;22;20321;-76
2023/01/07 06:36:07;;;;;;;1.92;0.60;;;9.60;99.90;;;;;;6302384;22;20379;-77
2023/01/07 06:38:33;;;;;;;1.30;0.45;;;9.60;99.90;;;;;;6274262;22;20000;-77
2023/01/07 06:41:00;;;;;;;2.40;0.77;;;9.60;99.90;;;;;;6302314;22;20026;-77
2023/01/07 06:43:26;;;;;;;1.58;0.52;;;9.60;99.90;;;;;;6275134;22;20403;-80
2023/01/07 06:45:52;;;;;;;1.60;0.47;;;9.60;99.90;;;;;;6273705;22;20041;-79
2023/01/07 06:48:17;;;;;;;1.35;0.50;;;9.60;99.90;;;;;;6274974;22;20471;-77
2023/01/07 06:50:44;;;;;;;1.38;0.50;;;9.60;99.90;;;;;;6299761;22;20041;-77
2023/01/07 06:53:09;;;;;;;1.65;0.57;;;9.60;99.90;;;;;;6248969;22;20004;-77
2023/01/07 06:55:35;;;;;;;1.88;0.70;;;9.60;99.90;;;;;;6302269;22;20390;-80
2023/01/07 06:58:01;;;;;;;1.15;0.50;;;9.60;99.90;;;;;;6299579;22;20007;-83
2023/01/07 07:00:27;;;;;;;1.05;0.50;;;9.60;99.90;;;;;;6274663;22;20324;-77
2023/01/07 07:02:53;;;;;;;1.45;0.52;;;9.70;99.90;;;;;;6274636;22;20019;-77
2023/01/07 07:05:19;;;;;;;2.08;0.68;;;9.70;99.90;;;;;;6274285;22;20041;-77
2023/01/07 07:07:44;;;;;;;1.40;0.50;;;9.70;99.90;;;;;;6301448;22;20011;-77
2023/01/07 07:10:10;;;;;;;0.93;0.40;;;9.70;99.90;;;;;;6302307;22;20071;-77
2023/01/07 07:12:37;;;;;;;1.05;0.30;;;9.70;99.90;;;;;;6303432;22;20049;-77
2023/01/07 07:15:04;;;;;;;2.40;0.52;;;9.60;99.90;;;;;;6275438;22;20019;-77
2023/01/07 07:17:30;;;;;;;2.45;0.50;;;9.70;99.90;;;;;;6251258;22;20239;-79
2023/01/07 07:19:56;;;;;;;1.33;0.40;;;9.60;99.90;;;;;;6275993;22;20136;-78
2023/01/07 07:22:22;;;;;;;1.48;0.50;;;9.70;99.90;;;;;;6304288;22;20003;-77
2023/01/07 07:24:47;;;;;;;1.27;0.60;;;9.70;99.90;;;;;;6302415;22;19999;-77
2023/01/07 07:27:13;;;;;;;1.13;0.40;;;9.70;99.90;;;;;;6301896;22;20046;-77
2023/01/07 07:29:39;;;;;;;0.70;0.30;;;9.70;99.90;;;;;;6275733;22;20019;-77
2023/01/07 07:32:04;;;;;;;1.80;0.50;;;9.60;99.90;;;;;;6276510;22;20003;-76
2023/01/07 07:34:30;;;;;;;1.45;0.30;;;9.70;99.90;;;;;;6250586;22;20072;-77
2023/01/07 07:36:56;;;;;;;0.75;0.30;;;9.70;99.90;;;;;;6275616;22;20048;-77
2023/01/07 07:39:22;;;;;;;1.95;0.30;;;9.70;99.90;;;;;;6276257;22;20011;-77
2023/01/07 07:41:47;;;;;;;0.73;0.30;;;9.70;99.90;;;;;;6275836;22;20003;-77
2023/01/07 07:44:16;;;;;;;1.90;0.30;;;9.70;99.90;;;;;;6275613;22;20014;-79
2023/01/07 07:46:41;;;;;;;0.70;0.40;;;9.70;99.90;;;;;;6303552;22;20499;-77
2023/01/07 07:49:07;;;;;;;1.80;0.30;;;9.70;99.90;;;;;;6276006;22;20431;-77
2023/01/07 07:51:33;;;;;;;0.70;0.25;;;9.70;99.90;;;;;;6302195;22;20615;-77
2023/01/07 07:53:58;;;;;;;0.60;0.30;;;9.70;99.90;;;;;;6249816;22;20412;-77
2023/01/07 07:56:24;;;;;;;1.40;0.20;;;9.70;99.90;;;;;;6276226;22;20011;-79
2023/01/07 07:58:49;;;;;;;0.80;0.30;;;9.70;99.90;;;;;;6274631;22;20006;-79
2023/01/07 08:01:15;;;;;;;1.30;0.35;;;9.70;99.90;;;;;;6276282;22;20030;-77
2023/01/07 08:03:42;;;;;;;1.52;0.30;;;9.70;99.90;;;;;;6275979;22;20440;-77
2023/01/07 08:06:10;;;;;;;0.60;0.20;;;9.70;99.90;;;;;;6249875;22;20019;-77
2023/01/07 08:08:35;;;;;;;1.13;0.20;;;9.70;99.90;;;;;;6249006;22;20101;-79
2023/01/07 08:11:02;;;;;;;1.15;0.30;;;9.80;99.90;;;;;;6301659;22;20432;-80
2023/01/07 08:13:29;;;;;;;0.90;0.20;;;9.80;99.90;;;;;;6249479;22;20081;-77
2023/01/07 08:15:55;;;;;;;0.80;0.20;;;9.80;99.90;;;;;;6249844;22;20019;-80
2023/01/07 08:18:20;;;;;;;0.98;0.30;;;9.80;99.90;;;;;;6275918;22;20031;-79
2023/01/07 08:20:47;;;;;;;0.77;0.20;;;9.80;99.90;;;;;;6275536;22;20053;-80
2023/01/07 08:23:12;;;;;;;0.60;0.20;;;9.80;99.90;;;;;;6250136;22;20008;-77
2023/01/07 08:25:38;;;;;;;0.73;0.20;;;9.80;99.90;;;;;;6275649;22;20093;-80
2023/01/07 08:28:04;;;;;;;1.27;0.25;;;9.80;99.90;;;;;;6275071;22;20043;-78
2023/01/07 08:30:30;;;;;;;0.70;0.22;;;9.90;99.90;;;;;;6301328;22;20011;-80
2023/01/07 08:32:56;;;;;;;0.40;0.20;;;9.90;99.90;;;;;;6250118;22;20096;-77
2023/01/07 08:35:22;;;;;;;0.50;0.20;;;9.90;99.90;;;;;;6303124;22;20443;-81
2023/01/07 08:37:48;;;;;;;0.75;0.30;;;10.00;99.90;;;;;;6275152;22;20328;-78
2023/01/07 08:40:14;;;;;;;0.45;0.17;;;10.00;99.90;;;;;;6250403;22;20043;-78
2023/01/07 08:42:40;;;;;;;0.70;0.20;;;10.00;99.90;;;;;;6249989;22;20008;-80
2023/01/07 08:45:07;;;;;;;1.95;0.20;;;10.00;99.90;;;;;;6300206;22;20005;-80
2023/01/07 08:47:33;;;;;;;0.50;0.20;;;10.00;99.90;;;;;;6301641;22;20009;-78
2023/01/07 08:49:59;;;;;;;0.30;0.10;;;10.00;99.90;;;;;;6275170;22;20331;-81
2023/01/07 08:52:25;;;;;;;0.70;0.20;;;10.00;99.90;;;;;;6303471;22;20367;-81
2023/01/07 08:54:51;;;;;;;0.88;0.20;;;10.10;99.90;;;;;;6249282;22;20015;-78
2023/01/07 08:57:17;;;;;;;1.55;0.20;;;10.00;99.90;;;;;;6275401;22;20026;-81
2023/01/07 08:59:43;;;;;;;0.85;0.20;;;10.00;99.90;;;;;;6275444;22;20011;-79
2023/01/07 09:02:15;;;;;;;1.17;0.20;;;10.00;99.90;;;;;;6249468;22;20276;-80
2023/01/07 09:04:41;;;;;;;0.30;0.10;;;10.10;99.90;;;;;;6275657;22;20035;-78
2023/01/07 09:07:07;;;;;;;0.88;0.20;;;10.20;99.90;;;;;;6275177;22;20062;-80
2023/01/07 09:09:33;;;;;;;0.50;0.20;;;10.10;99.90;;;;;;6249224;22;20040;-80
2023/01/07 09:11:58;;;;;;;1.35;0.20;;;10.20;99.90;;;;;;6274686;22;20007;-80
2023/01/07 09:14:24;;;;;;;0.70;0.20;;;10.20;99.90;;;;;;6275070;22;20015;-77
2023/01/07 09:16:50;;;;;;;2.67;0.40;;;10.20;99.90;;;;;;6302329;22;19999;-78
2023/01/07 09:19:15;;;;;;;0.40;0.10;;;10.20;99.90;;;;;;6249347;22;20031;-77
2023/01/07 09:21:41;;;;;;;0.50;0.20;;;10.10;99.90;;;;;;6275526;22;19999;-78
2023/01/07 09:24:07;;;;;;;0.40;0.15;;;10.20;99.90;;;;;;6302348;22;20320;-77
2023/01/07 09:26:32;;;;;;;1.10;0.20;;;10.20;99.90;;;;;;6274898;22;20366;-78
2023/01/07 09:28:58;;;;;;;0.85;0.20;;;10.20;99.90;;;;;;6249322;22;19996;-78
2023/01/07 09:31:24;;;;;;;0.68;0.20;;;10.20;99.90;;;;;;6274946;22;20034;-78
2023/01/07 09:33:50;;;;;;;0.75;0.20;;;10.20;99.90;;;;;;6275039;22;20355;-79
2023/01/07 09:36:15;;;;;;;0.30;0.20;;;10.20;99.90;;;;;;6275234;22;20013;-78
2023/01/07 09:38:41;;;;;;;0.55;0.20;;;10.30;99.90;;;;;;6275045;22;20026;-77
2023/01/07 09:41:33;;;;;;;1.02;0.20;;;10.20;99.90;;;;;;6274281;22;20022;-77
2023/01/07 09:44:30;;;;;;;0.30;0.13;;;10.30;99.90;;;;;;6275410;22;20353;-77
2023/01/07 09:46:57;;;;;;;0.77;0.10;;;10.30;99.90;;;;;;6249456;22;20007;-77
2023/01/07 09:49:26;;;;;;;1.15;0.20;;;10.30;99.90;;;;;;6249523;22;20097;-78
2023/01/07 09:51:58;;;;;;;0.80;0.20;;;10.30;99.90;;;;;;6274733;22;20396;-78
2023/01/07 09:54:30;;;;;;;0.93;0.20;;;10.40;99.90;;;;;;6274402;22;20015;-78
2023/01/07 09:56:56;;;;;;;0.57;0.20;;;10.30;99.90;;;;;;6302658;22;20450;-78
2023/01/07 09:59:22;;;;;;;0.60;0.20;;;10.40;99.90;;;;;;6274716;22;20011;-78
2023/01/07 10:02:02;;;;;;;0.60;0.20;;;10.40;99.90;;;;;;6274927;22;20029;-78
2023/01/07 10:04:40;;;;;;;0.80;0.20;;;10.40;99.90;;;;;;6275399;22;20094;-78
2023/01/07 10:07:35;;;;;;;0.40;0.20;;;10.50;99.90;;;;;;6301887;22;19995;-78
2023/01/07 10:10:28;;;;;;;0.57;0.20;;;10.50;99.90;;;;;;6187535;22;20015;-78
2023/01/07 10:13:38;;;;;;;0.77;0.20;;;10.60;99.90;;;;;;6275092;22;20019;-78
2023/01/07 10:16:25;;;;;;;0.65;0.10;;;10.60;99.90;;;;;;6127652;23;20393;-79
2023/01/07 10:19:03;;;;;;;0.68;0.10;;;10.70;99.90;;;;;;6127969;23;20013;-78
2023/01/07 10:21:54;;;;;;;0.40;0.20;;;10.70;99.90;;;;;;6127999;23;20346;-78
2023/01/07 10:24:31;;;;;;;0.80;0.10;;;10.70;99.90;;;;;;6152116;23;20012;-79
2023/01/07 10:27:02;;;;;;;0.30;0.13;;;10.80;99.90;;;;;;6176892;23;20005;-78
2023/01/07 10:29:35;;;;;;;0.93;0.10;;;10.80;99.90;;;;;;6128097;23;20012;-78
2023/01/07 10:32:15;;;;;;;0.50;0.10;;;10.80;99.90;;;;;;6177198;23;20478;-78
2023/01/07 10:34:46;;;;;;;0.43;0.10;;;10.90;99.90;;;;;;6128158;23;20087;-79
2023/01/07 10:37:31;;;;;;;0.68;0.17;;;10.90;99.90;;;;;;6176999;23;20008;-78
2023/01/07 10:40:20;;;;;;;1.35;0.10;;;10.90;99.90;;;;;;6177013;23;20009;-78
2023/01/07 10:43:10;;;;;;;0.50;0.10;;;10.90;99.90;;;;;;6155557;23;20009;-78
2023/01/07 10:45:54;;;;;;;;;;;10.90;99.90;;;;;;6131333;23;20496;-81
2023/01/07 10:48:44;;;;;;;0.40;0.10;;;11.00;99.90;;;;;;6180686;23;19915;-80
2023/01/07 10:51:45;;;;;;;0.93;0.20;;;11.10;99.90;;;;;;6246499;22;20372;-78
2023/01/07 10:54:37;;;;;;;0.85;0.20;;;11.20;99.90;;;;;;6252565;22;20169;-79
2023/01/07 10:57:24;;;;;;;0.90;0.10;;;11.40;99.90;;;;;;6277561;22;20440;-78
2023/01/07 10:59:53;;;;;;;0.68;0.20;;;11.50;99.90;;;;;;6278022;22;20083;-78
2023/01/07 11:02:26;;;;;;;0.28;0.10;;;11.50;99.90;;;;;;6278160;22;20005;-79
2023/01/07 11:04:56;;;;;;;0.30;0.10;;;11.50;99.90;;;;;;6305475;22;20010;-82
2023/01/07 11:07:42;;;;;;;1.42;0.20;;;11.50;99.90;;;;;;6277616;22;20003;-79
2023/01/07 11:10:18;;;;;;;0.25;0.10;;;11.50;99.90;;;;;;6277683;22;20046;-79
2023/01/07 11:13:00;;;;;;;0.52;0.20;;;11.60;99.90;;;;;;6252600;22;20019;-81
2023/01/07 11:15:53;;;;;;;1.45;0.20;;;11.60;99.90;;;;;;6278293;22;20014;-80
2023/01/07 11:18:25;;;;;;;0.30;0.10;;;11.60;99.90;;;;;;6278706;22;20403;-80
2023/01/07 11:20:56;;;;;;;0.32;0.10;;;11.70;99.90;;;;;;6277338;22;20003;-81
2023/01/07 11:23:33;;;;;;;2.30;0.20;;;11.70;99.90;;;;;;6278087;22;19999;-81
2023/01/07 11:26:05;;;;;;;0.85;0.10;;;11.80;99.90;;;;;;6251768;22;20395;-83
2023/01/07 11:28:32;;;;;;;0.20;0.10;;;11.80;99.90;;;;;;6252841;22;20014;-81
2023/01/07 11:30:59;;;;;;;0.60;0.10;;;11.90;99.90;;;;;;6277771;22;20011;-81
2023/01/07 11:33:40;;;;;;;0.55;0.20;;;11.90;99.90;;;;;;6252612;22;20037;-82
2023/01/07 11:36:07;;;;;;;0.60;0.10;;;12.00;99.90;;;;;;6276776;22;20015;-81
2023/01/07 11:38:35;;;;;;;0.43;0.10;;;12.10;99.90;;;;;;6252256;22;20440;-81
2023/01/07 11:41:03;;;;;;;0.95;0.13;;;12.20;99.90;;;;;;6252180;22;20015;-81
2023/01/07 11:43:37;;;;;;;0.25;0.10;;;12.40;99.90;;;;;;6278079;22;20090;-80
2023/01/07 11:46:11;;;;;;;0.20;0.10;;;12.40;99.90;;;;;;6252179;22;20432;-81
2023/01/07 11:48:45;;;;;;;0.40;0.10;;;12.30;99.90;;;;;;6252447;22;20011;-81
2023/01/07 11:51:11;;;;;;;0.73;0.20;;;12.20;99.90;;;;;;6277077;22;20011;-79
2023/01/07 11:53:44;;;;;;;0.50;0.10;;;12.20;99.90;;;;;;6271444;22;20421;-81
2023/01/07 11:56:11;;;;;;;1.40;0.10;;;12.20;99.90;;;;;;6245188;22;20016;-82
2023/01/07 11:58:42;;;;;;;0.40;0.20;;;12.20;99.90;;;;;;6272673;22;20010;-82
2023/01/07 12:01:08;;;;;;;0.57;0.10;;;12.20;99.90;;;;;;6245299;22;20061;-81
2023/01/07 12:04:09;;;;;;;0.68;0.10;;;12.10;99.90;;;;;;6246205;22;20054;-82
2023/01/07 12:06:38;;;;;;;0.20;0.10;;;12.10;99.90;;;;;;6272778;22;20328;-82
2023/01/07 12:09:35;;;;;;;0.50;0.10;;;12.00;99.90;;;;;;6165547;22;20756;-80
2023/01/07 12:12:38;;;;;;;0.52;0.10;;;12.00;99.90;;;;;;6231760;22;20008;-81
2023/01/07 12:15:19;;;;;;;0.35;0.10;;;12.10;99.90;;;;;;6260602;22;20015;-81
2023/01/07 12:17:48;;;;;;;0.50;0.20;;;12.00;99.90;;;;;;6231927;22;20065;-83
2023/01/07 12:20:36;;;;;;;1.27;0.10;;;11.90;99.90;;;;;;6205354;22;20065;-80
2023/01/07 12:23:39;;;;;;;0.60;0.10;;;11.80;99.90;;;;;;6231791;22;20090;-81
2023/01/07 12:26:17;;;;;;;0.55;0.10;;;11.80;99.90;;;;;;6231445;22;20020;-82
2023/01/07 12:28:42;;;;;;;0.40;0.10;;;11.80;99.90;;;;;;6231668;22;20016;-81
2023/01/07 12:31:33;;;;;;;0.40;0.13;;;11.80;99.90;;;;;;6206458;22;20081;-81
2023/01/07 12:34:03;;;;;;;1.45;0.10;;;11.90;99.90;;;;;;6205883;22;20019;-81
2023/01/07 12:36:40;;;;;;;0.47;0.10;;;11.90;99.90;;;;;;6232074;22;20019;-82
2023/01/07 12:39:19;;;;;;;0.40;0.10;;;11.80;99.90;;;;;;6231473;22;20335;-81
2023/01/07 12:41:56;;;;;;;0.40;0.10;;;11.70;99.90;;;;;;6268295;22;20019;-82
2023/01/07 12:44:23;;;;;;;1.02;0.20;;;11.70;99.90;;;;;;6244042;22;20083;-82
2023/01/07 12:47:07;;;;;;;0.40;0.10;;;11.70;99.90;;;;;;6271994;22;20098;-81
2023/01/07 12:49:46;;;;;;;0.63;0.20;;;11.80;99.90;;;;;;6243717;22;20404;-81
2023/01/07 12:52:14;;;;;;;0.65;0.20;;;11.70;99.90;;;;;;6270292;22;20057;-83
2023/01/07 12:54:58;;;;;;;0.70;0.20;;;11.70;99.90;;;;;;6265004;22;20514;-82
2023/01/07 12:57:39;;;;;;;0.30;0.10;;;11.70;99.90;;;;;;6301750;22;20049;-80
2023/01/07 13:00:07;;;;;;;0.60;0.10;;;11.70;99.90;;;;;;6275068;22;20007;-82
2023/01/07 13:03:18;;;;;;;0.70;0.25;;;11.80;99.90;;;;;;6275319;22;20310;-82
2023/01/07 13:05:57;;;;;;;0.73;0.20;;;11.70;99.90;;;;;;6275696;22;20013;-79
2023/01/07 13:08:56;;;;;;;0.65;0.20;;;11.70;99.90;;;;;;6250132;22;20003;-81
2023/01/07 13:14:27;;;;;;;1.27;0.20;;;11.70;99.90;;;;;;6302260;22;20015;-80
2023/01/07 13:17:05;;;;;;;0.50;0.20;;;11.70;99.90;;;;;;6274504;22;20003;-78